SKUC/AUC METAR and TAF weather

Enter ICAO airport designator
Station Type Date Time Source
SKUC METAR 2019/08/24 22:00 UTC NOAA

SKUC 242200Z 19003KT 9999 BKN020 30/23 A2989


Station Type Date Time Source
SKUC Decoded METAR 2019/08/24 22:00 UTC NOAA

Station name not available
Aug 24, 2019 - 06:00 PM EDT / 2019.08.24 2200 UTC
Wind: from the S (190 degrees) at 3 MPH (3 KT):0
Visibility: greater than 7 mile(s):0
Sky conditions: mostly cloudy
Temperature: 86 F (30 C)
Heat index: 93.4 F (34.1 C):1
Dew Point: 73 F (23 C)
Relative Humidity: 66%
Pressure (altimeter): 29.89 in. Hg (1012 hPa)
ob: SKUC 242200Z 19003KT 9999 BKN020 30/23 A2989
cycle: 22

Station Type Date Time Source
SKUC TAF UTC NOAA

Error!

Example: see airport list